Time;durP1;ratioP1;P1;durP2;ratioP2;P2;SDS_P1;SDS_P2;PMS_P1;PMS_P2;Temp;Humidity;BMP_temperature;BMP_pressure;BME280_temperature;BME280_humidity;BME280_pressure;Samples;Min_cycle;Max_cycle;Signal;HPM_P1;HPM_P2
2023/06/19 00:02:15;;;;;;;;;;;;;;;20.38;54.55;99818.31;5324192;26;32683;-84
2023/06/19 00:04:42;;;;;;;;;;;;;;;20.44;54.29;99820.47;5323921;26;34698;-84
2023/06/19 00:07:10;;;;;;;;;;;;;;;20.23;55.25;99824.13;5323792;26;34680;-84
2023/06/19 00:09:37;;;;;;;;;;;;;;;20.21;55.25;99822.38;5323845;26;34278;-83
2023/06/19 00:12:05;;;;;;;;;;;;;;;20.26;54.95;99819.31;5287377;26;32234;-84
2023/06/19 00:14:35;;;;;;;;;;;;;;;20.16;55.47;99824.59;5323763;26;33757;-84
2023/06/19 00:17:03;;;;;;;;;;;;;;;20.11;55.63;99825.97;5306414;26;34114;-83
2023/06/19 00:19:35;;;;;;;;;;;;;;;20.15;55.67;99822.91;5324008;26;34826;-83
2023/06/19 00:22:03;;;;;;;;;;;;;;;20.18;55.65;99827.19;5324897;26;33483;-83
2023/06/19 00:24:31;;;;;;;;;;;;;;;20.16;55.72;99829.97;5323438;26;33269;-84
2023/06/19 00:27:02;;;;;;;;;;;;;;;20.26;55.47;99826.53;5323755;26;34907;-83
2023/06/19 00:29:30;;;;;;;;;;;;;;;20.15;55.56;99822.06;5324550;26;33764;-84
2023/06/19 00:32:01;;;;;;;;;;;;;;;20.12;55.55;99823.16;5305727;26;33633;-84
2023/06/19 00:34:28;;;;;;;;;;;;;;;20.19;55.29;99823.50;5304474;26;32934;-84
2023/06/19 00:36:57;;;;;;;;;;;;;;;20.20;55.14;99820.69;5306037;26;34634;-84
2023/06/19 00:39:25;;;;;;;;;;;;;;;20.18;55.03;99822.66;5323826;26;34177;-84
2023/06/19 00:41:52;;;;;;;;;;;;;;;20.19;55.01;99816.31;5305748;26;32486;-84
2023/06/19 00:44:20;;;;;;;;;;;;;;;20.12;55.21;99817.78;5305609;26;33936;-84
2023/06/19 00:46:49;;;;;;;;;;;;;;;20.25;54.73;99820.31;5305397;26;33845;-84
2023/06/19 00:49:18;;;;;;;;;;;;;;;20.14;54.94;99815.84;5305793;26;33489;-84
2023/06/19 00:51:45;;;;;;;;;;;;;;;20.11;54.80;99820.63;5305444;26;33980;-84
2023/06/19 00:54:14;;;;;;;;;;;;;;;20.07;55.03;99819.16;5305770;26;34635;-84
2023/06/19 00:56:41;;;;;;;;;;;;;;;19.88;55.54;99826.03;5305365;26;33631;-85
2023/06/19 00:59:12;;;;;;;;;;;;;;;19.85;55.55;99828.13;5323562;26;34908;-84
2023/06/19 01:01:39;;;;;;;;;;;;;;;19.92;55.38;99827.47;5305631;26;34386;-85
2023/06/19 01:04:07;;;;;;;;;;;;;;;19.89;55.75;99827.75;5323954;26;33932;-85
2023/06/19 01:06:41;;;;;;;;;;;;;;;19.97;55.56;99819.06;5323812;26;34294;-84
2023/06/19 01:09:10;;;;;;;;;;;;;;;20.03;55.47;99813.19;5305425;26;34153;-85
2023/06/19 01:11:39;;;;;;;;;;;;;;;19.86;55.92;99817.28;5323574;26;33553;-85
2023/06/19 01:14:08;;;;;;;;;;;;;;;19.94;55.70;99813.97;5323350;26;33868;-84
2023/06/19 01:16:36;;;;;;;;;;;;;;;19.97;55.48;99810.19;5305619;26;34098;-84
2023/06/19 01:19:04;;;;;;;;;;;;;;;19.97;55.49;99821.75;5305022;26;33430;-85
2023/06/19 01:21:32;;;;;;;;;;;;;;;20.09;55.08;99815.38;5306015;26;33504;-84
2023/06/19 01:24:01;;;;;;;;;;;;;;;20.10;55.00;99813.56;5304790;26;33071;-84
2023/06/19 01:26:28;;;;;;;;;;;;;;;19.93;55.33;99810.41;5323123;26;33889;-84
2023/06/19 01:28:57;;;;;;;;;;;;;;;19.95;55.34;99807.62;5323104;26;34302;-84
2023/06/19 01:31:27;;;;;;;;;;;;;;;19.93;55.49;99812.25;5323267;26;32280;-84
2023/06/19 01:33:55;;;;;;;;;;;;;;;19.97;55.11;99812.88;5321254;26;34149;-84
2023/06/19 01:36:23;;;;;;;;;;;;;;;19.89;55.78;99806.31;5302892;26;33621;-84
2023/06/19 01:38:51;;;;;;;;;;;;;;;19.77;56.19;99803.78;5304949;26;33739;-84
2023/06/19 01:41:18;;;;;;;;;;;;;;;20.05;55.17;99803.22;5323129;26;33425;-83
2023/06/19 01:43:46;;;;;;;;;;;;;;;20.04;55.04;99798.84;5323626;26;34926;-83
2023/06/19 01:46:13;;;;;;;;;;;;;;;19.93;55.17;99790.81;5323175;26;34025;-83
2023/06/19 01:48:41;;;;;;;;;;;;;;;19.70;55.68;99803.41;5286667;26;34095;-83
2023/06/19 01:51:08;;;;;;;;;;;;;;;19.62;56.20;99790.66;5304948;26;32571;-83
2023/06/19 01:53:38;;;;;;;;;;;;;;;19.75;56.13;99790.53;5323883;26;34516;-84
2023/06/19 01:56:05;;;;;;;;;;;;;;;19.82;55.87;99783.66;5304865;26;33451;-83
2023/06/19 01:58:33;;;;;;;;;;;;;;;19.81;55.96;99791.84;5305046;26;33404;-84
2023/06/19 02:01:00;;;;;;;;;;;;;;;19.70;56.20;99784.66;5323437;26;33799;-84
2023/06/19 02:03:28;;;;;;;;;;;;;;;19.58;56.81;99794.53;5305047;26;32905;-84
2023/06/19 02:05:56;;;;;;;;;;;;;;;19.65;56.42;99793.09;5305470;26;34845;-84
2023/06/19 02:08:23;;;;;;;;;;;;;;;19.60;56.01;99795.28;5287482;26;33735;-83
2023/06/19 02:10:51;;;;;;;;;;;;;;;19.91;55.02;99798.16;5306593;26;33472;-83
2023/06/19 02:13:18;;;;;;;;;;;;;;;19.87;55.29;99799.38;5306189;26;34945;-83
2023/06/19 02:15:46;;;;;;;;;;;;;;;19.62;56.11;99801.38;5287474;26;34536;-84
2023/06/19 02:18:14;;;;;;;;;;;;;;;19.47;56.65;99807.09;5306270;26;34436;-83
2023/06/19 02:20:42;;;;;;;;;;;;;;;19.32;57.24;99815.38;5305854;26;33686;-83
2023/06/19 02:23:10;;;;;;;;;;;;;;;19.29;57.42;99806.75;5324558;26;34760;-83
2023/06/19 02:25:38;;;;;;;;;;;;;;;19.45;56.93;99812.56;5323794;26;34193;-83
2023/06/19 02:28:06;;;;;;;;;;;;;;;19.38;57.10;99811.37;5324714;26;33637;-83
2023/06/19 02:30:34;;;;;;;;;;;;;;;19.30;57.22;99808.44;5305955;26;33527;-85
2023/06/19 02:33:01;;;;;;;;;;;;;;;19.26;57.30;99806.97;5305974;26;33705;-84
2023/06/19 02:35:29;;;;;;;;;;;;;;;19.43;56.86;99809.16;5305628;26;33010;-84
2023/06/19 02:37:57;;;;;;;;;;;;;;;19.13;57.65;99802.63;5324167;26;34475;-84
2023/06/19 02:40:25;;;;;;;;;;;;;;;19.23;57.42;99799.19;5324758;26;33424;-85
2023/06/19 02:42:53;;;;;;;;;;;;;;;19.26;57.37;99812.34;5306515;26;33984;-85
2023/06/19 02:45:24;;;;;;;;;;;;;;;19.29;57.28;99810.28;5324640;26;32992;-85
2023/06/19 02:47:52;;;;;;;;;;;;;;;19.39;56.91;99813.06;5320355;27;34850;-85
2023/06/19 02:50:20;;;;;;;;;;;;;;;19.38;56.94;99814.03;5302627;27;33966;-85
2023/06/19 02:52:48;;;;;;;;;;;;;;;19.37;57.04;99821.22;5320277;27;33732;-84
2023/06/19 02:55:15;;;;;;;;;;;;;;;19.12;57.79;99814.28;5321964;27;34769;-85
2023/06/19 02:57:44;;;;;;;;;;;;;;;19.10;57.92;99818.91;5284292;27;34022;-84
2023/06/19 03:00:12;;;;;;;;;;;;;;;19.33;57.30;99816.25;5320195;27;32532;-84
2023/06/19 03:02:43;;;;;;;;;;;;;;;19.28;57.89;99810.41;5302266;27;33091;-84
2023/06/19 03:05:12;;;;;;;;;;;;;;;19.38;57.48;99811.37;5302590;27;34284;-83
2023/06/19 03:07:39;;;;;;;;;;;;;;;19.29;57.97;99812.09;5302338;27;33394;-84
2023/06/19 03:10:07;;;;;;;;;;;;;;;19.37;58.01;99815.00;5283744;27;33432;-83
2023/06/19 03:12:35;;;;;;;;;;;;;;;19.73;56.64;99813.03;5320387;27;33716;-83
2023/06/19 03:15:03;;;;;;;;;;;;;;;19.66;56.73;99810.87;5301828;27;34210;-84
2023/06/19 03:17:30;;;;;;;;;;;;;;;19.39;57.56;99823.78;5301775;27;34996;-84
2023/06/19 03:19:58;;;;;;;;;;;;;;;19.44;57.65;99818.91;5301961;27;32689;-84
2023/06/19 03:22:25;;;;;;;;;;;;;;;19.57;57.52;99816.94;5283490;27;33046;-83
2023/06/19 03:24:53;;;;;;;;;;;;;;;19.44;57.86;99826.94;5320738;27;33871;-83
2023/06/19 03:27:21;;;;;;;;;;;;;;;19.78;56.96;99822.41;5301597;27;33967;-85
2023/06/19 03:29:48;;;;;;;;;;;;;;;19.88;56.32;99817.16;5302456;27;33645;-85
2023/06/19 03:32:17;;;;;;;;;;;;;;;19.68;57.49;99822.31;5284135;27;34417;-85
2023/06/19 03:34:44;;;;;;;;;;;;;;;19.83;57.31;99827.38;5301903;27;34285;-85
2023/06/19 03:37:12;;;;;;;;;;;;;;;19.99;57.41;99825.16;5302328;27;33009;-85
2023/06/19 03:39:40;;;;;;;;;;;;;;;19.83;57.88;99827.38;5302248;27;33264;-84
2023/06/19 03:42:08;;;;;;;;;;;;;;;19.74;58.19;99822.78;5302238;27;33074;-83
2023/06/19 03:44:35;;;;;;;;;;;;;;;19.77;57.91;99827.91;5320124;27;33118;-83
2023/06/19 03:47:03;;;;;;;;;;;;;;;19.89;57.56;99829.56;5301560;27;33270;-83
2023/06/19 03:49:30;;;;;;;;;;;;;;;20.21;56.45;99832.25;5302083;27;33347;-84
2023/06/19 03:51:58;;;;;;;;;;;;;;;20.46;55.67;99825.69;5320234;27;34166;-84
2023/06/19 03:54:26;;;;;;;;;;;;;;;20.30;56.13;99826.13;5302053;27;33644;-84
2023/06/19 03:56:53;;;;;;;;;;;;;;;20.42;55.12;99824.28;5302078;27;34173;-84
2023/06/19 03:59:21;;;;;;;;;;;;;;;20.25;56.23;99828.34;5283888;27;31957;-85
2023/06/19 04:01:49;;;;;;;;;;;;;;;20.29;56.46;99828.97;5283811;27;33145;-84
2023/06/19 04:04:17;;;;;;;;;;;;;;;20.36;56.57;99825.63;5265549;27;34253;-85
2023/06/19 04:06:46;;;;;;;;;;;;;;;20.54;55.67;99831.31;5266129;27;33407;-85
2023/06/19 04:09:13;;;;;;;;;;;;;;;20.52;55.10;99829.75;5284238;27;32753;-84
2023/06/19 04:11:41;;;;;;;;;;;;;;;20.75;54.46;99825.97;5265969;27;33317;-84
2023/06/19 04:14:16;;;;;;;;;;;;;;;20.90;53.87;99826.47;5284281;27;33658;-85
2023/06/19 04:16:44;;;;;;;;;;;;;;;20.98;53.26;99829.31;5301946;27;35105;-85
2023/06/19 04:19:11;;;;;;;;;;;;;;;21.07;53.08;99825.84;5302078;27;33356;-85
2023/06/19 04:21:39;;;;;;;;;;;;;;;21.31;52.71;99832.78;5301216;27;34165;-83
2023/06/19 04:24:09;;;;;;;;;;;;;;;21.58;51.75;99821.44;5283796;27;34461;-83
2023/06/19 04:26:38;;;;;;;;;;;;;;;21.86;51.39;99823.34;5283863;27;32814;-83
2023/06/19 04:29:07;;;;;;;;;;;;;;;21.94;50.77;99825.34;5284324;27;33076;-83
2023/06/19 04:31:40;;;;;;;;;;;;;;;21.92;51.42;99821.94;5284158;27;33849;-83
2023/06/19 04:34:09;;;;;;;;;;;;;;;21.77;51.80;99823.31;5285474;27;32954;-83
2023/06/19 04:36:37;;;;;;;;;;;;;;;21.73;52.53;99818.22;5321535;27;33505;-83
2023/06/19 04:39:06;;;;;;;;;;;;;;;21.73;52.10;99818.22;5283646;27;33333;-83
2023/06/19 04:41:33;;;;;;;;;;;;;;;21.76;52.11;99827.00;5299799;27;33369;-83
2023/06/19 04:44:03;;;;;;;;;;;;;;;21.82;52.05;99826.44;5319798;27;34688;-83
2023/06/19 04:46:30;;;;;;;;;;;;;;;22.09;51.74;99820.41;5301687;27;33819;-83
2023/06/19 04:48:57;;;;;;;;;;;;;;;22.16;52.06;99824.25;5283760;27;32032;-83
2023/06/19 04:51:26;;;;;;;;;;;;;;;22.33;51.79;99828.09;5321463;27;34886;-84
2023/06/19 04:53:53;;;;;;;;;;;;;;;22.53;50.91;99820.84;5319784;27;35045;-83
2023/06/19 04:56:21;;;;;;;;;;;;;;;22.45;51.40;99826.94;5320054;27;34411;-83
2023/06/19 04:58:49;;;;;;;;;;;;;;;22.65;49.58;99822.41;5319774;27;33237;-84
2023/06/19 05:01:17;;;;;;;;;;;;;;;22.70;49.55;99825.53;5301868;27;33931;-84
2023/06/19 05:03:45;;;;;;;;;;;;;;;22.54;50.62;99826.09;5319894;27;33590;-84
2023/06/19 05:06:13;;;;;;;;;;;;;;;22.51;51.53;99833.63;5319466;27;34513;-84
2023/06/19 05:08:40;;;;;;;;;;;;;;;22.71;50.66;99840.66;5319791;27;34142;-84
2023/06/19 05:11:08;;;;;;;;;;;;;;;22.77;50.40;99840.09;5319443;27;33803;-83
2023/06/19 05:13:36;;;;;;;;;;;;;;;22.75;50.50;99840.25;5301079;27;32998;-84
2023/06/19 05:16:03;;;;;;;;;;;;;;;22.94;50.60;99838.53;5321009;27;34981;-85
2023/06/19 05:18:30;;;;;;;;;;;;;;;22.97;50.15;99841.78;5319968;27;32947;-85
2023/06/19 05:20:58;;;;;;;;;;;;;;;23.18;49.63;99838.06;5319801;27;34931;-85
2023/06/19 05:23:26;;;;;;;;;;;;;;;23.13;49.22;99840.34;5301509;27;34738;-84
2023/06/19 05:25:53;;;;;;;;;;;;;;;23.45;49.06;99850.69;5301315;27;34033;-84
2023/06/19 05:28:21;;;;;;;;;;;;;;;23.70;48.00;99855.44;5301121;27;33038;-84
2023/06/19 05:30:50;;;;;;;;;;;;;;;23.68;47.90;99852.03;5321121;27;34447;-83
2023/06/19 05:33:17;;;;;;;;;;;;;;;23.51;49.14;99850.13;5301635;27;34945;-85
2023/06/19 05:35:51;;;;;;;;;;;;;;;23.45;47.57;99856.09;5283308;27;32826;-83
2023/06/19 05:38:19;;;;;;;;;;;;;;;23.73;47.15;99857.81;5297342;27;34012;-84
2023/06/19 05:40:47;;;;;;;;;;;;;;;24.09;45.60;99851.66;5301894;27;33698;-84
2023/06/19 05:43:15;;;;;;;;;;;;;;;23.77;46.55;99850.28;5297488;27;33929;-85
2023/06/19 05:45:42;;;;;;;;;;;;;;;24.25;46.35;99847.28;5265971;27;32498;-85
2023/06/19 05:48:10;;;;;;;;;;;;;;;24.43;45.09;99851.88;5302078;27;32808;-83
2023/06/19 05:50:37;;;;;;;;;;;;;;;24.63;43.74;99847.97;5265752;27;32930;-83
2023/06/19 05:53:05;;;;;;;;;;;;;;;24.47;44.20;99853.25;5302527;27;34301;-83
2023/06/19 05:55:32;;;;;;;;;;;;;;;24.37;44.58;99855.19;5283670;27;33316;-83
2023/06/19 05:58:00;;;;;;;;;;;;;;;24.19;45.06;99865.94;5283803;27;33442;-83
2023/06/19 06:00:29;;;;;;;;;;;;;;;24.41;45.53;99861.97;5281090;27;34986;-87
2023/06/19 06:03:00;;;;;;;;;;;;;;;24.45;44.16;99856.13;5300458;27;33611;-85
2023/06/19 06:05:28;;;;;;;;;;;;;;;24.54;45.25;99859.72;5299689;27;32787;-85
2023/06/19 06:07:56;;;;;;;;;;;;;;;24.88;44.56;99857.16;5299451;27;32502;-85
2023/06/19 06:10:25;;;;;;;;;;;;;;;25.28;44.03;99864.69;5282107;27;34890;-85
2023/06/19 06:12:52;;;;;;;;;;;;;;;25.21;44.87;99858.25;5299811;27;33972;-85
2023/06/19 06:15:20;;;;;;;;;;;;;;;25.44;44.59;99855.81;5300134;27;33857;-84
2023/06/19 06:17:48;;;;;;;;;;;;;;;25.28;43.31;99864.69;5282105;27;33609;-85
2023/06/19 06:20:16;;;;;;;;;;;;;;;25.42;43.94;99865.13;5281548;27;34172;-85
2023/06/19 06:22:44;;;;;;;;;;;;;;;25.57;44.75;99868.91;5281302;27;34416;-84
2023/06/19 06:25:13;;;;;;;;;;;;;;;25.60;44.51;99870.44;5282803;27;33992;-85
2023/06/19 06:27:41;;;;;;;;;;;;;;;25.38;45.11;99869.13;5281757;27;33458;-85
2023/06/19 06:30:11;;;;;;;;;;;;;;;25.44;44.63;99865.78;5281427;27;33881;-85
2023/06/19 06:32:38;;;;;;;;;;;;;;;25.66;44.93;99862.53;5282312;27;33285;-85
2023/06/19 06:35:06;;;;;;;;;;;;;;;25.93;43.75;99866.03;5281065;27;33897;-84
2023/06/19 06:37:34;;;;;;;;;;;;;;;25.44;44.62;99868.50;5263265;27;33191;-84
2023/06/19 06:40:04;;;;;;;;;;;;;;;26.15;44.89;99868.12;5299963;27;34241;-85
2023/06/19 06:42:31;;;;;;;;;;;;;;;26.15;44.23;99869.97;5280767;27;33486;-85
2023/06/19 06:44:59;;;;;;;;;;;;;;;26.48;42.88;99874.47;5299052;27;33418;-85
2023/06/19 06:47:27;;;;;;;;;;;;;;;26.46;43.21;99870.25;5317989;27;34056;-85
2023/06/19 06:49:55;;;;;;;;;;;;;;;26.00;43.30;99873.31;5263161;27;33289;-85
2023/06/19 06:52:28;;;;;;;;;;;;;;;26.34;43.95;99872.37;5298512;27;33482;-86
2023/06/19 06:55:05;;;;;;;;;;;;;;;26.38;42.98;99873.75;5283565;27;33324;-86
2023/06/19 06:57:32;;;;;;;;;;;;;;;26.55;43.65;99869.25;5281567;27;33300;-86
2023/06/19 07:00:00;;;;;;;;;;;;;;;26.80;43.31;99873.63;5282194;27;34313;-85
2023/06/19 07:02:28;;;;;;;;;;;;;;;27.13;42.08;99862.81;5281651;27;34470;-85
2023/06/19 07:04:55;;;;;;;;;;;;;;;27.51;42.05;99868.47;5263475;27;32689;-85
2023/06/19 07:07:23;;;;;;;;;;;;;;;27.58;41.34;99872.16;5299572;27;33033;-85
2023/06/19 07:09:52;;;;;;;;;;;;;;;27.48;40.88;99866.09;5283508;27;32824;-85
2023/06/19 07:12:20;;;;;;;;;;;;;;;27.66;40.25;99861.28;5301621;27;33601;-85
2023/06/19 07:14:47;;;;;;;;;;;;;;;27.75;40.16;99862.97;5302103;27;34238;-85
2023/06/19 07:17:15;;;;;;;;;;;;;;;27.79;40.36;99860.75;5302162;27;33446;-85
2023/06/19 07:19:45;;;;;;;;;;;;;;;27.69;37.72;99858.22;5302506;27;34266;-85
2023/06/19 07:22:13;;;;;;;;;;;;;;;27.74;36.70;99861.28;5301807;27;33874;-85
2023/06/19 07:24:40;;;;;;;;;;;;;;;27.83;34.42;99863.97;5266021;27;33384;-85
2023/06/19 07:27:08;;;;;;;;;;;;;;;28.09;34.57;99864.50;5302312;27;33765;-86
2023/06/19 07:29:36;;;;;;;;;;;;;;;28.05;34.06;99857.72;5302113;27;34234;-85
2023/06/19 07:32:04;;;;;;;;;;;;;;;28.27;35.38;99856.94;5265741;27;33200;-85
2023/06/19 07:34:32;;;;;;;;;;;;;;;28.64;34.61;99852.62;5302019;27;34257;-85
2023/06/19 07:37:00;;;;;;;;;;;;;;;28.48;34.74;99848.13;5266203;27;32454;-85
2023/06/19 07:39:28;;;;;;;;;;;;;;;28.61;35.02;99858.41;5283369;27;33500;-84
2023/06/19 07:41:55;;;;;;;;;;;;;;;28.93;32.48;99851.84;5302251;27;34324;-85
2023/06/19 07:44:23;;;;;;;;;;;;;;;28.52;35.00;99852.19;5302123;27;33862;-85
2023/06/19 07:46:50;;;;;;;;;;;;;;;28.45;35.03;99859.38;5301580;27;33266;-85
2023/06/19 07:49:18;;;;;;;;;;;;;;;28.53;34.13;99850.31;5283880;27;33067;-85
2023/06/19 07:51:45;;;;;;;;;;;;;;;28.54;33.83;99862.91;5265361;27;33428;-85
2023/06/19 07:54:13;;;;;;;;;;;;;;;28.44;34.93;99854.13;5283824;27;34447;-85
2023/06/19 07:56:41;;;;;;;;;;;;;;;28.58;33.84;99848.78;5302098;27;33375;-84
2023/06/19 07:59:09;;;;;;;;;;;;;;;28.25;34.77;99848.13;5283870;27;33806;-85
2023/06/19 08:01:36;;;;;;;;;;;;;;;28.64;34.90;99849.91;5302126;27;33625;-85
2023/06/19 08:04:04;;;;;;;;;;;;;;;28.54;35.19;99846.59;5265268;27;34605;-85
2023/06/19 08:06:31;;;;;;;;;;;;;;;29.10;34.22;99852.56;5284302;27;33987;-85
2023/06/19 08:08:58;;;;;;;;;;;;;;;28.93;34.14;99849.13;5283619;27;33592;-85
2023/06/19 08:11:26;;;;;;;;;;;;;;;29.42;34.74;99855.97;5283820;27;33458;-85
2023/06/19 08:13:53;;;;;;;;;;;;;;;29.62;33.84;99848.09;5301844;27;34018;-85
2023/06/19 08:16:21;;;;;;;;;;;;;;;29.49;33.55;99851.47;5283714;27;33716;-86
2023/06/19 08:18:49;;;;;;;;;;;;;;;29.67;32.73;99845.66;5283827;27;33845;-85
2023/06/19 08:21:16;;;;;;;;;;;;;;;29.78;32.77;99845.19;5283702;27;34142;-85
2023/06/19 08:23:44;;;;;;;;;;;;;;;30.27;33.04;99842.63;5283144;27;33424;-85
2023/06/19 08:26:11;;;;;;;;;;;;;;;30.12;32.46;99849.16;5284015;27;34388;-86
2023/06/19 08:28:41;;;;;;;;;;;;;;;30.41;32.23;99845.50;5265656;27;33272;-85
2023/06/19 08:31:08;;;;;;;;;;;;;;;30.31;32.67;99841.22;5284261;27;33733;-85
2023/06/19 08:33:36;;;;;;;;;;;;;;;30.37;32.56;99841.47;5321710;27;34828;-85
2023/06/19 08:36:04;;;;;;;;;;;;;;;30.25;32.05;99842.00;5283505;27;33552;-85
2023/06/19 08:38:31;;;;;;;;;;;;;;;30.55;32.02;99841.87;5283406;27;33503;-85
2023/06/19 08:40:59;;;;;;;;;;;;;;;30.33;31.79;99844.56;5301772;27;35154;-85
2023/06/19 08:43:27;;;;;;;;;;;;;;;30.57;32.45;99843.34;5265661;27;33066;-85
2023/06/19 08:46:02;;;;;;;;;;;;;;;30.41;31.93;99845.50;5301818;27;33032;-85
2023/06/19 08:48:30;;;;;;;;;;;;;;;30.43;30.55;99841.53;5301370;27;34629;-86
2023/06/19 08:50:58;;;;;;;;;;;;;;;30.52;31.46;99839.50;5265435;27;33924;-85
2023/06/19 08:53:25;;;;;;;;;;;;;;;31.15;30.42;99837.78;5283184;27;34943;-85
2023/06/19 08:55:53;;;;;;;;;;;;;;;31.17;30.50;99835.66;5283571;27;33244;-85
2023/06/19 08:58:24;;;;;;;;;;;;;;;31.18;29.89;99839.25;5265190;27;34603;-86
2023/06/19 09:00:51;;;;;;;;;;;;;;;31.43;29.78;99845.09;5283486;27;35033;-85
2023/06/19 09:03:20;;;;;;;;;;;;;;;31.46;29.95;99845.53;5301937;27;33346;-85
2023/06/19 09:05:50;;;;;;;;;;;;;;;31.39;28.58;99833.75;5301572;27;33661;-86
2023/06/19 09:08:19;;;;;;;;;;;;;;;31.42;28.81;99830.59;5266327;27;32923;-85
2023/06/19 09:10:54;;;;;;;;;;;;;;;31.36;29.75;99837.72;5283385;27;34267;-85
2023/06/19 09:13:21;;;;;;;;;;;;;;;32.02;29.52;99830.91;5283041;27;33114;-85
2023/06/19 09:15:57;;;;;;;;;;;;;;;31.16;28.63;99833.16;5283793;27;32099;-85
2023/06/19 09:18:25;;;;;;;;;;;;;;;31.71;27.17;99829.47;5266479;27;34130;-86
2023/06/19 09:20:53;;;;;;;;;;;;;;;31.78;28.36;99835.81;5284408;27;34093;-85
2023/06/19 09:23:21;;;;;;;;;;;;;;;31.47;28.55;99835.47;5284914;27;35105;-85
2023/06/19 09:25:48;;;;;;;;;;;;;;;31.58;29.55;99829.44;5302726;27;33252;-86
2023/06/19 09:28:17;;;;;;;;;;;;;;;31.40;29.04;99840.87;5322205;27;34272;-86
2023/06/19 09:30:54;;;;;;;;;;;;;;;31.86;28.76;99826.66;5266265;27;33594;-86
2023/06/19 09:33:23;;;;;;;;;;;;;;;31.65;27.42;99833.03;5266574;27;33062;-85
2023/06/19 09:35:50;;;;;;;;;;;;;;;31.64;28.74;99827.78;5302610;27;32733;-85
2023/06/19 09:38:18;;;;;;;;;;;;;;;31.77;28.27;99831.41;5302493;27;34711;-86
2023/06/19 09:40:47;;;;;;;;;;;;;;;31.45;27.71;99823.91;5302857;27;33956;-86
2023/06/19 09:43:16;;;;;;;;;;;;;;;31.64;28.05;99825.91;5284470;27;33648;-85
2023/06/19 09:45:44;;;;;;;;;;;;;;;31.71;28.53;99821.28;5284444;27;32246;-85
2023/06/19 09:48:12;;;;;;;;;;;;;;;31.86;27.71;99819.31;5302294;27;33937;-86
2023/06/19 09:50:41;;;;;;;;;;;;;;;31.56;28.20;99821.44;5303142;27;34262;-86
2023/06/19 09:53:09;;;;;;;;;;;;;;;32.29;26.60;99819.00;5266148;27;34428;-85
2023/06/19 09:55:37;;;;;;;;;;;;;;;32.20;27.63;99819.41;5266390;27;32506;-86
2023/06/19 09:58:05;;;;;;;;;;;;;;;32.60;29.11;99814.84;5284182;27;35165;-85
2023/06/19 10:00:33;;;;;;;;;;;;;;;32.48;26.50;99800.97;5284100;27;33811;-86
2023/06/19 10:03:02;;;;;;;;;;;;;;;32.81;26.30;99800.97;5284203;27;35129;-85
2023/06/19 10:05:30;;;;;;;;;;;;;;;32.18;28.54;99805.94;5302642;27;33669;-86
2023/06/19 10:08:02;;;;;;;;;;;;;;;32.26;27.54;99797.53;5302517;27;34082;-86
2023/06/19 10:10:29;;;;;;;;;;;;;;;32.87;27.70;99797.38;5284703;27;33302;-86
2023/06/19 10:13:13;;;;;;;;;;;;;;;32.99;27.25;99785.81;5302853;27;34162;-85
2023/06/19 10:15:44;;;;;;;;;;;;;;;32.67;27.84;99782.06;5302658;27;34092;-85
2023/06/19 10:18:16;;;;;;;;;;;;;;;32.34;26.94;99794.63;5266835;27;33507;-86
2023/06/19 10:20:44;;;;;;;;;;;;;;;32.65;27.40;99784.12;5302915;27;35570;-85
2023/06/19 10:23:18;;;;;;;;;;;;;;;32.94;26.34;99788.34;5285199;27;34812;-85
2023/06/19 10:25:53;;;;;;;;;;;;;;;32.48;26.57;99781.84;5302743;27;33005;-86
2023/06/19 10:28:25;;;;;;;;;;;;;;;32.87;26.75;99778.25;5302031;27;34693;-85
2023/06/19 10:30:54;;;;;;;;;;;;;;;32.87;25.83;99772.78;5284764;27;34277;-86
2023/06/19 10:33:23;;;;;;;;;;;;;;;33.12;26.86;99775.69;5302301;27;34260;-86
2023/06/19 10:35:50;;;;;;;;;;;;;;;33.19;27.08;99780.28;5284242;27;33391;-86
2023/06/19 10:38:18;;;;;;;;;;;;;;;33.42;26.13;99777.06;5284241;27;34051;-86
2023/06/19 10:40:46;;;;;;;;;;;;;;;33.25;25.73;99774.81;5284030;27;34785;-86
2023/06/19 10:43:19;;;;;;;;;;;;;;;33.69;25.81;99767.72;5284626;27;34208;-85
2023/06/19 10:45:47;;;;;;;;;;;;;;;33.28;26.10;99774.41;5284702;27;34189;-85
2023/06/19 10:48:22;;;;;;;;;;;;;;;33.19;26.08;99774.81;5265891;27;33268;-86
2023/06/19 10:50:49;;;;;;;;;;;;;;;33.09;26.01;99781.59;5283941;27;34072;-86
2023/06/19 10:53:27;;;;;;;;;;;;;;;32.77;26.07;99772.37;5283969;27;35103;-86
2023/06/19 10:55:55;;;;;;;;;;;;;;;33.21;25.69;99776.31;5302410;27;33263;-86
2023/06/19 10:58:23;;;;;;;;;;;;;;;33.49;25.76;99767.81;5284472;27;34642;-86
2023/06/19 11:00:50;;;;;;;;;;;;;;;33.91;25.44;99767.41;5302108;27;33567;-86
2023/06/19 11:03:19;;;;;;;;;;;;;;;33.45;24.46;99768.47;5284190;27;34854;-85
2023/06/19 11:05:47;;;;;;;;;;;;;;;33.29;25.54;99767.88;5293334;27;32978;-86
2023/06/19 11:08:18;;;;;;;;;;;;;;;33.82;24.49;99759.44;5300268;27;34068;-86
2023/06/19 11:10:46;;;;;;;;;;;;;;;33.86;25.00;99760.69;5281796;27;33669;-86
2023/06/19 11:13:17;;;;;;;;;;;;;;;33.81;24.54;99762.41;5283892;27;34087;-86
2023/06/19 11:15:45;;;;;;;;;;;;;;;34.01;24.42;99765.06;5283879;27;32157;-86
2023/06/19 11:18:14;;;;;;;;;;;;;;;33.87;23.36;99758.78;5265870;27;33454;-86
2023/06/19 11:20:45;;;;;;;;;;;;;;;34.27;23.42;99761.28;5302095;27;33988;-86
2023/06/19 11:23:13;;;;;;;;;;;;;;;34.13;23.75;99761.38;5283913;27;33019;-86
2023/06/19 11:25:40;;;;;;;;;;;;;;;34.14;23.41;99763.06;5283773;27;33235;-86
2023/06/19 11:28:14;;;;;;;;;;;;;;;34.26;24.08;99763.19;5284062;27;34978;-86
2023/06/19 11:30:43;;;;;;;;;;;;;;;34.42;22.02;99752.72;5284131;27;32996;-86
2023/06/19 11:33:21;;;;;;;;;;;;;;;34.44;22.71;99754.19;5293098;27;33166;-86
2023/06/19 11:35:54;;;;;;;;;;;;;;;34.18;23.67;99751.66;5258607;27;33697;-86
2023/06/19 11:38:24;;;;;;;;;;;;;;;34.11;24.42;99748.97;5283638;27;33722;-86
2023/06/19 11:40:52;;;;;;;;;;;;;;;33.86;25.45;99737.94;5283994;27;35155;-86
2023/06/19 11:43:27;;;;;;;;;;;;;;;34.23;24.69;99738.12;5284164;27;34921;-86
2023/06/19 11:46:01;;;;;;;;;;;;;;;34.69;25.23;99743.25;5284251;27;33607;-86
2023/06/19 11:48:29;;;;;;;;;;;;;;;34.57;22.91;99732.19;5251490;27;805275;-87
2023/06/19 11:50:57;;;;;;;;;;;;;;;35.07;23.66;99739.50;5280214;27;34180;-86
2023/06/19 11:53:24;;;;;;;;;;;;;;;34.65;22.98;99737.34;5262645;27;34606;-86
2023/06/19 11:55:53;;;;;;;;;;;;;;;34.61;24.46;99735.28;5299474;27;33451;-86
2023/06/19 11:58:21;;;;;;;;;;;;;;;34.61;24.46;99733.41;5262758;27;34959;-86
2023/06/19 12:00:48;;;;;;;;;;;;;;;34.84;23.03;99740.13;5262077;27;34635;-86
2023/06/19 12:03:16;;;;;;;;;;;;;;;34.57;23.86;99745.06;5262595;27;34034;-86
2023/06/19 12:05:43;;;;;;;;;;;;;;;34.60;22.89;99734.47;5279962;27;33158;-86
2023/06/19 12:08:11;;;;;;;;;;;;;;;34.56;23.20;99740.63;5262371;27;33730;-86
2023/06/19 12:10:39;;;;;;;;;;;;;;;35.13;21.87;99733.09;5262286;27;35039;-86
2023/06/19 12:13:06;;;;;;;;;;;;;;;34.58;23.18;99728.38;5280033;27;33986;-86
2023/06/19 12:15:34;;;;;;;;;;;;;;;34.71;23.53;99727.41;5244642;27;32731;-86
2023/06/19 12:18:06;;;;;;;;;;;;;;;34.84;23.66;99723.69;5263112;27;33338;-86
2023/06/19 12:20:34;;;;;;;;;;;;;;;34.89;24.46;99721.09;5262570;27;33853;-86
2023/06/19 12:23:02;;;;;;;;;;;;;;;35.01;23.52;99711.09;5244049;27;33104;-86
2023/06/19 12:25:30;;;;;;;;;;;;;;;35.09;24.12;99712.69;5262628;27;33526;-86
2023/06/19 12:27:57;;;;;;;;;;;;;;;34.85;22.72;99715.25;5279821;27;34157;-86
2023/06/19 12:30:25;;;;;;;;;;;;;;;34.71;22.91;99713.69;5262182;27;33995;-86
2023/06/19 12:32:53;;;;;;;;;;;;;;;34.64;22.87;99707.44;5262246;27;35594;-86
2023/06/19 12:35:22;;;;;;;;;;;;;;;34.61;23.75;99708.75;5279786;27;32014;-86
2023/06/19 12:37:49;;;;;;;;;;;;;;;34.76;23.52;99705.63;5299800;27;34805;-85
2023/06/19 12:40:17;;;;;;;;;;;;;;;34.54;24.04;99707.94;5279499;27;34032;-87
2023/06/19 12:42:44;;;;;;;;;;;;;;;34.38;23.31;99698.38;5262260;27;34143;-86
2023/06/19 12:45:12;;;;;;;;;;;;;;;34.56;23.17;99694.00;5262121;27;33461;-87
2023/06/19 12:47:40;;;;;;;;;;;;;;;34.37;23.12;99698.56;5292615;27;34309;-86
2023/06/19 12:50:08;;;;;;;;;;;;;;;34.27;24.91;99701.81;5264424;27;33338;-86
2023/06/19 12:52:35;;;;;;;;;;;;;;;34.50;24.69;99695.75;5283891;27;33822;-86
2023/06/19 12:55:03;;;;;;;;;;;;;;;34.29;24.36;99691.50;5301362;27;32038;-86